sensor_id;sensor_type;location;lat;lon;timestamp;P1;durP1;ratioP1;P2;durP2;ratioP2
14847;SDS011;7516;43.570;1.448;2023-03-05T00:02:06;9.23;;;7.07;;
14847;SDS011;7516;43.570;1.448;2023-03-05T00:04:33;10.53;;;8.33;;
14847;SDS011;7516;43.570;1.448;2023-03-05T00:07:01;9.70;;;7.53;;
14847;SDS011;7516;43.570;1.448;2023-03-05T00:09:29;8.93;;;7.37;;
14847;SDS011;7516;43.570;1.448;2023-03-05T00:11:56;10.33;;;7.47;;
14847;SDS011;7516;43.570;1.448;2023-03-05T00:14:24;9.73;;;7.30;;
14847;SDS011;7516;43.570;1.448;2023-03-05T00:16:53;9.90;;;7.57;;
14847;SDS011;7516;43.570;1.448;2023-03-05T00:19:20;10.00;;;7.83;;
14847;SDS011;7516;43.570;1.448;2023-03-05T00:21:48;9.27;;;7.60;;
14847;SDS011;7516;43.570;1.448;2023-03-05T00:24:16;9.50;;;7.40;;
14847;SDS011;7516;43.570;1.448;2023-03-05T00:26:44;9.23;;;7.50;;
14847;SDS011;7516;43.570;1.448;2023-03-05T00:29:13;10.07;;;7.40;;
14847;SDS011;7516;43.570;1.448;2023-03-05T00:31:43;9.13;;;7.37;;
14847;SDS011;7516;43.570;1.448;2023-03-05T00:34:12;10.30;;;7.30;;
14847;SDS011;7516;43.570;1.448;2023-03-05T00:36:42;10.30;;;7.30;;
14847;SDS011;7516;43.570;1.448;2023-03-05T00:39:11;9.90;;;7.57;;
14847;SDS011;7516;43.570;1.448;2023-03-05T00:41:39;10.20;;;8.17;;
14847;SDS011;7516;43.570;1.448;2023-03-05T00:44:07;8.80;;;7.23;;
14847;SDS011;7516;43.570;1.448;2023-03-05T00:46:35;9.93;;;7.40;;
14847;SDS011;7516;43.570;1.448;2023-03-05T00:49:02;12.53;;;8.13;;
14847;SDS011;7516;43.570;1.448;2023-03-05T00:51:32;9.83;;;7.40;;
14847;SDS011;7516;43.570;1.448;2023-03-05T00:54:00;10.07;;;7.87;;
14847;SDS011;7516;43.570;1.448;2023-03-05T00:56:31;11.10;;;7.83;;
14847;SDS011;7516;43.570;1.448;2023-03-05T00:58:59;9.77;;;7.50;;
14847;SDS011;7516;43.570;1.448;2023-03-05T01:01:26;10.80;;;7.97;;
14847;SDS011;7516;43.570;1.448;2023-03-05T01:03:54;10.83;;;7.77;;
14847;SDS011;7516;43.570;1.448;2023-03-05T01:06:23;9.60;;;7.53;;
14847;SDS011;7516;43.570;1.448;2023-03-05T01:08:52;10.90;;;7.57;;
14847;SDS011;7516;43.570;1.448;2023-03-05T01:11:20;8.77;;;7.67;;
14847;SDS011;7516;43.570;1.448;2023-03-05T01:13:48;10.03;;;7.60;;
14847;SDS011;7516;43.570;1.448;2023-03-05T01:16:15;10.40;;;7.27;;
14847;SDS011;7516;43.570;1.448;2023-03-05T01:18:43;9.77;;;7.90;;
14847;SDS011;7516;43.570;1.448;2023-03-05T01:21:10;11.67;;;8.37;;
14847;SDS011;7516;43.570;1.448;2023-03-05T01:23:38;9.77;;;7.83;;
14847;SDS011;7516;43.570;1.448;2023-03-05T01:26:07;9.87;;;7.80;;
14847;SDS011;7516;43.570;1.448;2023-03-05T01:28:34;9.17;;;7.37;;
14847;SDS011;7516;43.570;1.448;2023-03-05T01:31:05;9.10;;;7.63;;
14847;SDS011;7516;43.570;1.448;2023-03-05T01:33:33;10.53;;;7.97;;
14847;SDS011;7516;43.570;1.448;2023-03-05T01:36:01;10.77;;;8.03;;
14847;SDS011;7516;43.570;1.448;2023-03-05T01:38:32;10.57;;;7.77;;
14847;SDS011;7516;43.570;1.448;2023-03-05T01:40:59;13.23;;;8.90;;
14847;SDS011;7516;43.570;1.448;2023-03-05T01:43:28;11.23;;;8.60;;
14847;SDS011;7516;43.570;1.448;2023-03-05T01:49:09;12.83;;;9.13;;
14847;SDS011;7516;43.570;1.448;2023-03-05T01:51:42;12.17;;;9.00;;
14847;SDS011;7516;43.570;1.448;2023-03-05T01:54:16;12.70;;;9.70;;
14847;SDS011;7516;43.570;1.448;2023-03-05T01:56:46;12.90;;;10.20;;
14847;SDS011;7516;43.570;1.448;2023-03-05T01:59:17;15.07;;;11.33;;
14847;SDS011;7516;43.570;1.448;2023-03-05T02:01:47;14.47;;;10.13;;
14847;SDS011;7516;43.570;1.448;2023-03-05T02:04:19;14.00;;;9.90;;
14847;SDS011;7516;43.570;1.448;2023-03-05T02:06:51;12.43;;;9.50;;
14847;SDS011;7516;43.570;1.448;2023-03-05T02:09:19;14.63;;;10.20;;
14847;SDS011;7516;43.570;1.448;2023-03-05T02:11:48;14.30;;;9.73;;
14847;SDS011;7516;43.570;1.448;2023-03-05T02:14:17;13.40;;;10.43;;
14847;SDS011;7516;43.570;1.448;2023-03-05T02:16:46;15.47;;;10.90;;
14847;SDS011;7516;43.570;1.448;2023-03-05T02:19:13;16.27;;;11.17;;
14847;SDS011;7516;43.570;1.448;2023-03-05T02:21:43;17.30;;;11.53;;
14847;SDS011;7516;43.570;1.448;2023-03-05T02:24:12;16.03;;;11.83;;
14847;SDS011;7516;43.570;1.448;2023-03-05T02:26:40;15.10;;;11.30;;
14847;SDS011;7516;43.570;1.448;2023-03-05T02:29:09;15.70;;;11.57;;
14847;SDS011;7516;43.570;1.448;2023-03-05T02:31:39;14.60;;;11.10;;
14847;SDS011;7516;43.570;1.448;2023-03-05T02:34:07;16.77;;;12.63;;
14847;SDS011;7516;43.570;1.448;2023-03-05T02:36:34;16.83;;;11.60;;
14847;SDS011;7516;43.570;1.448;2023-03-05T02:39:03;17.30;;;12.90;;
14847;SDS011;7516;43.570;1.448;2023-03-05T02:41:31;17.43;;;11.90;;
14847;SDS011;7516;43.570;1.448;2023-03-05T02:43:58;16.67;;;12.23;;
14847;SDS011;7516;43.570;1.448;2023-03-05T02:46:25;15.13;;;11.07;;
14847;SDS011;7516;43.570;1.448;2023-03-05T02:48:53;15.23;;;11.50;;
14847;SDS011;7516;43.570;1.448;2023-03-05T02:51:20;16.17;;;12.20;;
14847;SDS011;7516;43.570;1.448;2023-03-05T02:53:48;16.27;;;11.30;;
14847;SDS011;7516;43.570;1.448;2023-03-05T02:56:17;15.17;;;11.77;;
14847;SDS011;7516;43.570;1.448;2023-03-05T02:58:44;14.77;;;10.93;;
14847;SDS011;7516;43.570;1.448;2023-03-05T03:01:12;14.63;;;11.07;;
14847;SDS011;7516;43.570;1.448;2023-03-05T03:03:39;13.70;;;9.93;;
14847;SDS011;7516;43.570;1.448;2023-03-05T03:06:07;13.30;;;10.27;;
14847;SDS011;7516;43.570;1.448;2023-03-05T03:08:34;14.57;;;10.57;;
14847;SDS011;7516;43.570;1.448;2023-03-05T03:11:05;13.37;;;10.30;;
14847;SDS011;7516;43.570;1.448;2023-03-05T03:13:36;14.80;;;11.03;;
14847;SDS011;7516;43.570;1.448;2023-03-05T03:16:04;15.23;;;11.07;;
14847;SDS011;7516;43.570;1.448;2023-03-05T03:18:33;14.87;;;10.90;;
14847;SDS011;7516;43.570;1.448;2023-03-05T03:21:01;16.43;;;11.43;;
14847;SDS011;7516;43.570;1.448;2023-03-05T03:23:30;16.57;;;11.23;;
14847;SDS011;7516;43.570;1.448;2023-03-05T03:25:58;16.30;;;12.20;;
14847;SDS011;7516;43.570;1.448;2023-03-05T03:28:25;15.07;;;11.23;;
14847;SDS011;7516;43.570;1.448;2023-03-05T03:30:54;15.73;;;11.30;;
14847;SDS011;7516;43.570;1.448;2023-03-05T03:33:22;15.27;;;10.90;;
14847;SDS011;7516;43.570;1.448;2023-03-05T03:35:49;15.90;;;11.07;;
14847;SDS011;7516;43.570;1.448;2023-03-05T03:38:16;15.87;;;11.20;;
14847;SDS011;7516;43.570;1.448;2023-03-05T03:40:44;14.23;;;11.17;;
14847;SDS011;7516;43.570;1.448;2023-03-05T03:43:11;16.80;;;12.23;;
14847;SDS011;7516;43.570;1.448;2023-03-05T03:45:39;14.63;;;10.80;;
14847;SDS011;7516;43.570;1.448;2023-03-05T03:48:09;15.30;;;11.67;;
14847;SDS011;7516;43.570;1.448;2023-03-05T03:50:37;16.40;;;11.53;;
14847;SDS011;7516;43.570;1.448;2023-03-05T03:53:05;15.90;;;11.50;;
14847;SDS011;7516;43.570;1.448;2023-03-05T03:55:33;14.43;;;11.63;;
14847;SDS011;7516;43.570;1.448;2023-03-05T03:58:01;16.07;;;11.23;;
14847;SDS011;7516;43.570;1.448;2023-03-05T04:00:28;14.30;;;10.50;;
14847;SDS011;7516;43.570;1.448;2023-03-05T04:02:56;16.53;;;10.90;;
14847;SDS011;7516;43.570;1.448;2023-03-05T04:05:24;14.67;;;11.17;;
14847;SDS011;7516;43.570;1.448;2023-03-05T04:07:52;14.27;;;10.53;;
14847;SDS011;7516;43.570;1.448;2023-03-05T04:10:21;14.37;;;10.53;;
14847;SDS011;7516;43.570;1.448;2023-03-05T04:12:49;14.83;;;11.37;;
14847;SDS011;7516;43.570;1.448;2023-03-05T04:15:16;14.23;;;10.50;;
14847;SDS011;7516;43.570;1.448;2023-03-05T04:17:44;14.57;;;10.97;;
14847;SDS011;7516;43.570;1.448;2023-03-05T04:20:12;14.13;;;10.00;;
14847;SDS011;7516;43.570;1.448;2023-03-05T04:22:41;14.13;;;10.53;;
14847;SDS011;7516;43.570;1.448;2023-03-05T04:25:09;14.40;;;10.60;;
14847;SDS011;7516;43.570;1.448;2023-03-05T04:27:36;14.27;;;10.73;;
14847;SDS011;7516;43.570;1.448;2023-03-05T04:30:05;13.23;;;9.63;;
14847;SDS011;7516;43.570;1.448;2023-03-05T04:32:36;13.77;;;9.90;;
14847;SDS011;7516;43.570;1.448;2023-03-05T04:35:04;13.73;;;9.27;;
14847;SDS011;7516;43.570;1.448;2023-03-05T04:37:32;13.27;;;9.63;;
14847;SDS011;7516;43.570;1.448;2023-03-05T04:40:00;14.87;;;10.13;;
14847;SDS011;7516;43.570;1.448;2023-03-05T04:42:29;12.80;;;9.53;;
14847;SDS011;7516;43.570;1.448;2023-03-05T04:44:56;13.57;;;10.10;;
14847;SDS011;7516;43.570;1.448;2023-03-05T04:47:24;14.50;;;10.27;;
14847;SDS011;7516;43.570;1.448;2023-03-05T04:49:51;13.57;;;10.33;;
14847;SDS011;7516;43.570;1.448;2023-03-05T04:52:19;14.77;;;10.30;;
14847;SDS011;7516;43.570;1.448;2023-03-05T04:54:46;12.40;;;10.07;;
14847;SDS011;7516;43.570;1.448;2023-03-05T04:57:15;14.53;;;10.70;;
14847;SDS011;7516;43.570;1.448;2023-03-05T04:59:43;14.00;;;10.03;;
14847;SDS011;7516;43.570;1.448;2023-03-05T05:02:11;15.77;;;10.93;;
14847;SDS011;7516;43.570;1.448;2023-03-05T05:04:38;15.80;;;11.33;;
14847;SDS011;7516;43.570;1.448;2023-03-05T05:07:09;13.83;;;10.43;;
14847;SDS011;7516;43.570;1.448;2023-03-05T05:09:37;13.20;;;10.33;;
14847;SDS011;7516;43.570;1.448;2023-03-05T05:12:05;11.97;;;9.47;;
14847;SDS011;7516;43.570;1.448;2023-03-05T05:14:36;15.07;;;10.23;;
14847;SDS011;7516;43.570;1.448;2023-03-05T05:17:03;12.83;;;9.30;;
14847;SDS011;7516;43.570;1.448;2023-03-05T05:19:31;13.80;;;9.97;;
14847;SDS011;7516;43.570;1.448;2023-03-05T05:21:59;12.57;;;9.60;;
14847;SDS011;7516;43.570;1.448;2023-03-05T05:24:26;12.63;;;9.77;;
14847;SDS011;7516;43.570;1.448;2023-03-05T05:26:54;12.47;;;9.50;;
14847;SDS011;7516;43.570;1.448;2023-03-05T05:29:22;13.47;;;9.87;;
14847;SDS011;7516;43.570;1.448;2023-03-05T05:31:51;13.03;;;9.80;;
14847;SDS011;7516;43.570;1.448;2023-03-05T05:34:20;12.60;;;9.50;;
14847;SDS011;7516;43.570;1.448;2023-03-05T05:36:49;13.23;;;9.50;;
14847;SDS011;7516;43.570;1.448;2023-03-05T05:39:16;11.90;;;8.90;;
14847;SDS011;7516;43.570;1.448;2023-03-05T05:41:44;13.03;;;9.50;;
14847;SDS011;7516;43.570;1.448;2023-03-05T05:44:15;12.57;;;9.67;;
14847;SDS011;7516;43.570;1.448;2023-03-05T05:46:42;12.63;;;9.00;;
14847;SDS011;7516;43.570;1.448;2023-03-05T05:49:11;11.77;;;9.60;;
14847;SDS011;7516;43.570;1.448;2023-03-05T05:51:38;15.10;;;9.60;;
14847;SDS011;7516;43.570;1.448;2023-03-05T05:54:06;14.10;;;9.77;;
14847;SDS011;7516;43.570;1.448;2023-03-05T05:56:36;12.20;;;9.77;;
14847;SDS011;7516;43.570;1.448;2023-03-05T05:59:03;12.90;;;9.50;;
14847;SDS011;7516;43.570;1.448;2023-03-05T06:01:32;11.77;;;9.50;;
14847;SDS011;7516;43.570;1.448;2023-03-05T06:04:02;12.00;;;9.50;;
14847;SDS011;7516;43.570;1.448;2023-03-05T06:06:31;13.13;;;9.80;;
14847;SDS011;7516;43.570;1.448;2023-03-05T06:08:59;13.07;;;9.50;;
14847;SDS011;7516;43.570;1.448;2023-03-05T06:11:26;14.33;;;9.90;;
14847;SDS011;7516;43.570;1.448;2023-03-05T06:13:54;13.60;;;9.97;;
14847;SDS011;7516;43.570;1.448;2023-03-05T06:16:22;12.60;;;9.70;;
14847;SDS011;7516;43.570;1.448;2023-03-05T06:18:51;12.43;;;9.57;;
14847;SDS011;7516;43.570;1.448;2023-03-05T06:21:19;12.50;;;9.50;;
14847;SDS011;7516;43.570;1.448;2023-03-05T06:23:50;13.17;;;8.83;;
14847;SDS011;7516;43.570;1.448;2023-03-05T06:26:22;12.50;;;9.40;;
14847;SDS011;7516;43.570;1.448;2023-03-05T06:28:50;12.40;;;9.10;;
14847;SDS011;7516;43.570;1.448;2023-03-05T06:31:21;11.03;;;8.30;;
14847;SDS011;7516;43.570;1.448;2023-03-05T06:33:51;11.47;;;9.03;;
14847;SDS011;7516;43.570;1.448;2023-03-05T06:36:21;10.77;;;8.23;;
14847;SDS011;7516;43.570;1.448;2023-03-05T06:38:51;10.97;;;8.10;;
14847;SDS011;7516;43.570;1.448;2023-03-05T06:41:20;10.13;;;8.13;;
14847;SDS011;7516;43.570;1.448;2023-03-05T06:43:49;11.57;;;8.20;;
14847;SDS011;7516;43.570;1.448;2023-03-05T06:46:17;10.73;;;8.20;;
14847;SDS011;7516;43.570;1.448;2023-03-05T06:48:47;10.60;;;7.80;;
14847;SDS011;7516;43.570;1.448;2023-03-05T06:51:16;9.77;;;7.93;;
14847;SDS011;7516;43.570;1.448;2023-03-05T06:53:46;9.07;;;7.50;;
14847;SDS011;7516;43.570;1.448;2023-03-05T06:56:15;10.10;;;7.60;;
14847;SDS011;7516;43.570;1.448;2023-03-05T06:58:44;9.77;;;7.10;;
14847;SDS011;7516;43.570;1.448;2023-03-05T07:01:12;9.83;;;7.30;;
14847;SDS011;7516;43.570;1.448;2023-03-05T07:03:41;7.63;;;6.57;;
14847;SDS011;7516;43.570;1.448;2023-03-05T07:06:09;7.70;;;6.57;;
14847;SDS011;7516;43.570;1.448;2023-03-05T07:08:39;8.20;;;6.23;;
14847;SDS011;7516;43.570;1.448;2023-03-05T07:11:09;9.30;;;6.93;;
14847;SDS011;7516;43.570;1.448;2023-03-05T07:13:38;7.87;;;6.40;;
14847;SDS011;7516;43.570;1.448;2023-03-05T07:16:06;8.97;;;7.10;;
14847;SDS011;7516;43.570;1.448;2023-03-05T07:18:35;9.87;;;7.30;;
14847;SDS011;7516;43.570;1.448;2023-03-05T07:21:03;8.43;;;6.63;;
14847;SDS011;7516;43.570;1.448;2023-03-05T07:23:31;9.23;;;7.03;;
14847;SDS011;7516;43.570;1.448;2023-03-05T07:25:59;10.20;;;7.03;;
14847;SDS011;7516;43.570;1.448;2023-03-05T07:28:27;9.50;;;7.10;;
14847;SDS011;7516;43.570;1.448;2023-03-05T07:30:57;9.50;;;7.53;;
14847;SDS011;7516;43.570;1.448;2023-03-05T07:33:26;8.80;;;7.07;;
14847;SDS011;7516;43.570;1.448;2023-03-05T07:35:53;10.63;;;8.37;;
14847;SDS011;7516;43.570;1.448;2023-03-05T07:38:21;10.63;;;8.13;;
14847;SDS011;7516;43.570;1.448;2023-03-05T07:40:49;9.57;;;7.30;;
14847;SDS011;7516;43.570;1.448;2023-03-05T07:43:17;9.33;;;7.30;;
14847;SDS011;7516;43.570;1.448;2023-03-05T07:45:44;8.70;;;7.23;;
14847;SDS011;7516;43.570;1.448;2023-03-05T07:48:14;10.97;;;7.53;;
14847;SDS011;7516;43.570;1.448;2023-03-05T07:50:44;11.10;;;8.27;;
14847;SDS011;7516;43.570;1.448;2023-03-05T07:53:12;8.63;;;7.23;;
14847;SDS011;7516;43.570;1.448;2023-03-05T07:55:41;9.80;;;7.50;;
14847;SDS011;7516;43.570;1.448;2023-03-05T07:58:09;10.40;;;7.10;;
14847;SDS011;7516;43.570;1.448;2023-03-05T08:00:36;10.13;;;7.40;;
14847;SDS011;7516;43.570;1.448;2023-03-05T08:03:04;12.10;;;8.37;;
14847;SDS011;7516;43.570;1.448;2023-03-05T08:05:33;10.77;;;8.23;;
14847;SDS011;7516;43.570;1.448;2023-03-05T08:08:04;11.93;;;8.43;;
14847;SDS011;7516;43.570;1.448;2023-03-05T08:10:31;9.27;;;7.40;;
14847;SDS011;7516;43.570;1.448;2023-03-05T08:12:59;10.37;;;8.23;;
14847;SDS011;7516;43.570;1.448;2023-03-05T08:15:27;10.13;;;7.73;;
14847;SDS011;7516;43.570;1.448;2023-03-05T08:17:55;11.53;;;7.73;;
14847;SDS011;7516;43.570;1.448;2023-03-05T08:20:23;11.57;;;8.67;;
14847;SDS011;7516;43.570;1.448;2023-03-05T08:22:52;10.13;;;7.87;;
14847;SDS011;7516;43.570;1.448;2023-03-05T08:25:19;11.77;;;7.90;;
14847;SDS011;7516;43.570;1.448;2023-03-05T08:27:47;9.17;;;7.37;;
14847;SDS011;7516;43.570;1.448;2023-03-05T08:30:16;10.63;;;7.00;;
14847;SDS011;7516;43.570;1.448;2023-03-05T08:32:47;9.17;;;7.40;;
14847;SDS011;7516;43.570;1.448;2023-03-05T08:35:15;11.23;;;7.83;;
14847;SDS011;7516;43.570;1.448;2023-03-05T08:37:44;13.90;;;10.93;;
14847;SDS011;7516;43.570;1.448;2023-03-05T08:40:18;16.53;;;11.10;;
14847;SDS011;7516;43.570;1.448;2023-03-05T08:42:46;17.80;;;13.90;;
14847;SDS011;7516;43.570;1.448;2023-03-05T08:45:16;28.83;;;20.57;;
14847;SDS011;7516;43.570;1.448;2023-03-05T08:47:43;24.83;;;17.87;;
14847;SDS011;7516;43.570;1.448;2023-03-05T08:50:11;29.80;;;21.20;;
14847;SDS011;7516;43.570;1.448;2023-03-05T08:52:38;24.83;;;17.67;;
14847;SDS011;7516;43.570;1.448;2023-03-05T08:55:06;23.67;;;17.33;;
14847;SDS011;7516;43.570;1.448;2023-03-05T08:57:35;24.63;;;17.27;;
14847;SDS011;7516;43.570;1.448;2023-03-05T09:00:03;21.73;;;15.10;;
14847;SDS011;7516;43.570;1.448;2023-03-05T09:02:31;21.73;;;13.97;;
14847;SDS011;7516;43.570;1.448;2023-03-05T09:04:59;22.17;;;13.77;;
14847;SDS011;7516;43.570;1.448;2023-03-05T09:07:26;18.53;;;13.33;;
14847;SDS011;7516;43.570;1.448;2023-03-05T09:09:54;20.17;;;14.97;;
14847;SDS011;7516;43.570;1.448;2023-03-05T09:12:21;20.20;;;15.00;;
14847;SDS011;7516;43.570;1.448;2023-03-05T09:14:50;25.20;;;16.10;;
14847;SDS011;7516;43.570;1.448;2023-03-05T09:17:20;23.13;;;15.37;;
14847;SDS011;7516;43.570;1.448;2023-03-05T09:19:47;22.30;;;15.40;;
14847;SDS011;7516;43.570;1.448;2023-03-05T09:22:15;25.53;;;18.70;;
14847;SDS011;7516;43.570;1.448;2023-03-05T09:24:42;25.20;;;18.80;;
14847;SDS011;7516;43.570;1.448;2023-03-05T09:27:09;21.87;;;15.63;;
14847;SDS011;7516;43.570;1.448;2023-03-05T09:29:37;27.83;;;18.70;;
14847;SDS011;7516;43.570;1.448;2023-03-05T09:32:06;25.50;;;18.03;;
14847;SDS011;7516;43.570;1.448;2023-03-05T09:34:34;30.43;;;21.83;;
14847;SDS011;7516;43.570;1.448;2023-03-05T09:37:01;28.40;;;19.40;;
14847;SDS011;7516;43.570;1.448;2023-03-05T09:39:29;33.97;;;23.50;;
14847;SDS011;7516;43.570;1.448;2023-03-05T09:42:03;32.23;;;23.60;;
14847;SDS011;7516;43.570;1.448;2023-03-05T09:44:50;28.90;;;19.37;;
14847;SDS011;7516;43.570;1.448;2023-03-05T09:47:42;26.80;;;18.17;;
14847;SDS011;7516;43.570;1.448;2023-03-05T09:50:21;22.27;;;15.20;;
14847;SDS011;7516;43.570;1.448;2023-03-05T09:52:58;25.23;;;17.80;;
14847;SDS011;7516;43.570;1.448;2023-03-05T09:55:31;24.40;;;15.93;;
14847;SDS011;7516;43.570;1.448;2023-03-05T09:58:05;22.87;;;15.30;;
14847;SDS011;7516;43.570;1.448;2023-03-05T10:00:37;21.30;;;15.77;;
14847;SDS011;7516;43.570;1.448;2023-03-05T10:03:11;27.70;;;18.97;;
14847;SDS011;7516;43.570;1.448;2023-03-05T10:05:53;22.67;;;14.90;;
14847;SDS011;7516;43.570;1.448;2023-03-05T10:08:28;23.83;;;15.83;;
14847;SDS011;7516;43.570;1.448;2023-03-05T10:11:06;27.00;;;17.90;;
14847;SDS011;7516;43.570;1.448;2023-03-05T10:13:44;27.77;;;19.67;;
14847;SDS011;7516;43.570;1.448;2023-03-05T10:16:21;28.50;;;18.47;;
14847;SDS011;7516;43.570;1.448;2023-03-05T10:19:05;25.80;;;16.67;;
14847;SDS011;7516;43.570;1.448;2023-03-05T10:21:39;28.20;;;18.57;;
14847;SDS011;7516;43.570;1.448;2023-03-05T10:24:10;22.80;;;15.53;;
14847;SDS011;7516;43.570;1.448;2023-03-05T10:26:46;23.47;;;16.07;;
14847;SDS011;7516;43.570;1.448;2023-03-05T10:29:45;21.63;;;14.53;;
14847;SDS011;7516;43.570;1.448;2023-03-05T10:32:27;21.03;;;14.03;;
14847;SDS011;7516;43.570;1.448;2023-03-05T10:35:11;22.47;;;14.90;;
14847;SDS011;7516;43.570;1.448;2023-03-05T10:40:50;24.27;;;16.87;;
14847;SDS011;7516;43.570;1.448;2023-03-05T10:43:22;27.43;;;18.97;;
14847;SDS011;7516;43.570;1.448;2023-03-05T10:45:53;21.50;;;15.07;;
14847;SDS011;7516;43.570;1.448;2023-03-05T10:48:27;23.37;;;16.67;;
14847;SDS011;7516;43.570;1.448;2023-03-05T10:51:01;25.30;;;18.27;;
14847;SDS011;7516;43.570;1.448;2023-03-05T10:53:44;24.30;;;17.07;;
14847;SDS011;7516;43.570;1.448;2023-03-05T10:56:17;23.13;;;15.10;;
14847;SDS011;7516;43.570;1.448;2023-03-05T10:58:46;23.17;;;15.07;;
14847;SDS011;7516;43.570;1.448;2023-03-05T11:01:20;27.90;;;19.67;;
14847;SDS011;7516;43.570;1.448;2023-03-05T11:03:50;24.70;;;16.70;;
14847;SDS011;7516;43.570;1.448;2023-03-05T11:06:27;33.70;;;23.40;;
14847;SDS011;7516;43.570;1.448;2023-03-05T11:09:07;30.00;;;21.37;;
14847;SDS011;7516;43.570;1.448;2023-03-05T11:12:01;29.73;;;21.97;;
14847;SDS011;7516;43.570;1.448;2023-03-05T11:14:40;33.07;;;20.20;;
14847;SDS011;7516;43.570;1.448;2023-03-05T11:17:22;31.33;;;20.13;;
14847;SDS011;7516;43.570;1.448;2023-03-05T11:19:53;31.03;;;19.83;;
14847;SDS011;7516;43.570;1.448;2023-03-05T11:22:23;27.23;;;17.27;;
14847;SDS011;7516;43.570;1.448;2023-03-05T11:25:02;23.27;;;15.13;;
14847;SDS011;7516;43.570;1.448;2023-03-05T11:27:41;19.57;;;13.57;;
14847;SDS011;7516;43.570;1.448;2023-03-05T11:30:18;28.13;;;18.17;;
14847;SDS011;7516;43.570;1.448;2023-03-05T11:32:49;30.10;;;20.70;;
14847;SDS011;7516;43.570;1.448;2023-03-05T11:35:34;26.93;;;17.77;;
14847;SDS011;7516;43.570;1.448;2023-03-05T11:38:05;29.57;;;17.80;;
14847;SDS011;7516;43.570;1.448;2023-03-05T11:40:41;27.73;;;18.60;;
14847;SDS011;7516;43.570;1.448;2023-03-05T11:43:09;29.40;;;21.60;;
14847;SDS011;7516;43.570;1.448;2023-03-05T11:45:41;26.43;;;17.53;;
14847;SDS011;7516;43.570;1.448;2023-03-05T11:48:11;24.03;;;15.20;;
14847;SDS011;7516;43.570;1.448;2023-03-05T11:50:44;24.77;;;16.97;;
14847;SDS011;7516;43.570;1.448;2023-03-05T11:53:19;25.43;;;15.87;;
14847;SDS011;7516;43.570;1.448;2023-03-05T11:55:53;23.43;;;15.97;;
14847;SDS011;7516;43.570;1.448;2023-03-05T11:58:26;25.23;;;16.33;;
14847;SDS011;7516;43.570;1.448;2023-03-05T12:00:57;25.00;;;17.70;;
14847;SDS011;7516;43.570;1.448;2023-03-05T12:03:28;23.03;;;17.70;;
14847;SDS011;7516;43.570;1.448;2023-03-05T12:05:59;22.50;;;14.33;;
14847;SDS011;7516;43.570;1.448;2023-03-05T12:08:36;25.20;;;16.37;;
14847;SDS011;7516;43.570;1.448;2023-03-05T12:11:08;26.63;;;18.57;;
14847;SDS011;7516;43.570;1.448;2023-03-05T12:13:42;24.77;;;18.77;;
14847;SDS011;7516;43.570;1.448;2023-03-05T12:16:24;28.47;;;16.63;;
14847;SDS011;7516;43.570;1.448;2023-03-05T12:19:01;27.90;;;19.57;;
14847;SDS011;7516;43.570;1.448;2023-03-05T12:21:48;29.70;;;19.07;;
14847;SDS011;7516;43.570;1.448;2023-03-05T12:24:34;27.97;;;18.50;;
14847;SDS011;7516;43.570;1.448;2023-03-05T12:29:59;22.30;;;14.40;;
14847;SDS011;7516;43.570;1.448;2023-03-05T12:35:31;19.43;;;14.23;;
14847;SDS011;7516;43.570;1.448;2023-03-05T12:38:16;28.83;;;18.30;;
14847;SDS011;7516;43.570;1.448;2023-03-05T12:44:13;27.23;;;17.83;;
14847;SDS011;7516;43.570;1.448;2023-03-05T12:49:43;24.83;;;16.07;;
14847;SDS011;7516;43.570;1.448;2023-03-05T12:52:14;22.60;;;14.33;;
14847;SDS011;7516;43.570;1.448;2023-03-05T12:54:55;20.53;;;13.97;;
14847;SDS011;7516;43.570;1.448;2023-03-05T12:57:38;22.73;;;15.30;;
14847;SDS011;7516;43.570;1.448;2023-03-05T13:00:13;26.60;;;16.17;;
14847;SDS011;7516;43.570;1.448;2023-03-05T13:02:45;17.63;;;12.37;;
14847;SDS011;7516;43.570;1.448;2023-03-05T13:05:20;22.47;;;16.07;;
14847;SDS011;7516;43.570;1.448;2023-03-05T13:07:52;30.30;;;17.40;;
14847;SDS011;7516;43.570;1.448;2023-03-05T13:10:34;27.53;;;17.57;;
14847;SDS011;7516;43.570;1.448;2023-03-05T13:13:01;19.30;;;13.50;;
14847;SDS011;7516;43.570;1.448;2023-03-05T13:15:30;25.50;;;16.30;;
14847;SDS011;7516;43.570;1.448;2023-03-05T13:17:59;22.87;;;15.10;;
14847;SDS011;7516;43.570;1.448;2023-03-05T13:20:33;24.43;;;16.97;;
14847;SDS011;7516;43.570;1.448;2023-03-05T13:23:12;27.07;;;15.80;;
14847;SDS011;7516;43.570;1.448;2023-03-05T13:25:42;23.50;;;15.80;;
14847;SDS011;7516;43.570;1.448;2023-03-05T13:28:11;16.30;;;11.83;;
14847;SDS011;7516;43.570;1.448;2023-03-05T13:30:44;19.90;;;11.53;;
14847;SDS011;7516;43.570;1.448;2023-03-05T13:33:18;19.90;;;12.87;;
14847;SDS011;7516;43.570;1.448;2023-03-05T13:35:50;21.50;;;15.37;;
14847;SDS011;7516;43.570;1.448;2023-03-05T13:38:28;22.13;;;15.73;;
14847;SDS011;7516;43.570;1.448;2023-03-05T13:41:04;21.50;;;14.67;;
14847;SDS011;7516;43.570;1.448;2023-03-05T13:43:41;20.07;;;13.17;;
14847;SDS011;7516;43.570;1.448;2023-03-05T13:46:10;19.83;;;13.40;;
14847;SDS011;7516;43.570;1.448;2023-03-05T13:48:38;22.90;;;15.60;;
14847;SDS011;7516;43.570;1.448;2023-03-05T13:51:05;23.90;;;16.63;;
14847;SDS011;7516;43.570;1.448;2023-03-05T13:53:35;19.23;;;12.63;;
14847;SDS011;7516;43.570;1.448;2023-03-05T13:56:04;21.03;;;15.30;;
14847;SDS011;7516;43.570;1.448;2023-03-05T13:58:40;20.70;;;13.77;;
14847;SDS011;7516;43.570;1.448;2023-03-05T14:01:14;21.93;;;14.80;;
14847;SDS011;7516;43.570;1.448;2023-03-05T14:03:51;16.83;;;12.13;;
14847;SDS011;7516;43.570;1.448;2023-03-05T14:06:21;17.90;;;11.50;;
14847;SDS011;7516;43.570;1.448;2023-03-05T14:08:52;20.63;;;12.97;;
14847;SDS011;7516;43.570;1.448;2023-03-05T14:11:25;18.20;;;13.90;;
14847;SDS011;7516;43.570;1.448;2023-03-05T14:13:56;22.50;;;15.00;;
14847;SDS011;7516;43.570;1.448;2023-03-05T14:16:29;21.97;;;16.07;;
14847;SDS011;7516;43.570;1.448;2023-03-05T14:18:58;22.10;;;16.60;;
14847;SDS011;7516;43.570;1.448;2023-03-05T14:21:40;23.47;;;15.10;;
14847;SDS011;7516;43.570;1.448;2023-03-05T14:24:11;20.43;;;14.17;;
14847;SDS011;7516;43.570;1.448;2023-03-05T14:26:46;18.00;;;12.57;;
14847;SDS011;7516;43.570;1.448;2023-03-05T14:29:17;24.47;;;14.43;;
14847;SDS011;7516;43.570;1.448;2023-03-05T14:31:50;18.40;;;12.43;;
14847;SDS011;7516;43.570;1.448;2023-03-05T14:34:20;17.83;;;12.17;;
14847;SDS011;7516;43.570;1.448;2023-03-05T14:36:51;18.53;;;12.67;;
14847;SDS011;7516;43.570;1.448;2023-03-05T14:39:38;21.87;;;12.97;;
14847;SDS011;7516;43.570;1.448;2023-03-05T14:42:26;22.90;;;13.80;;
14847;SDS011;7516;43.570;1.448;2023-03-05T14:44:56;19.50;;;13.07;;
14847;SDS011;7516;43.570;1.448;2023-03-05T14:47:26;24.53;;;15.90;;
14847;SDS011;7516;43.570;1.448;2023-03-05T14:49:54;19.90;;;12.43;;
14847;SDS011;7516;43.570;1.448;2023-03-05T14:52:23;19.97;;;13.57;;
14847;SDS011;7516;43.570;1.448;2023-03-05T14:54:52;20.27;;;14.60;;
14847;SDS011;7516;43.570;1.448;2023-03-05T14:57:22;18.63;;;11.53;;
14847;SDS011;7516;43.570;1.448;2023-03-05T14:59:52;18.17;;;12.63;;
14847;SDS011;7516;43.570;1.448;2023-03-05T15:02:21;19.57;;;12.53;;
14847;SDS011;7516;43.570;1.448;2023-03-05T15:04:51;17.57;;;11.70;;
14847;SDS011;7516;43.570;1.448;2023-03-05T15:07:19;21.60;;;12.57;;
14847;SDS011;7516;43.570;1.448;2023-03-05T15:09:51;20.63;;;14.83;;
14847;SDS011;7516;43.570;1.448;2023-03-05T15:12:19;18.63;;;12.57;;
14847;SDS011;7516;43.570;1.448;2023-03-05T15:14:48;17.60;;;12.30;;
14847;SDS011;7516;43.570;1.448;2023-03-05T15:17:18;20.77;;;11.97;;
14847;SDS011;7516;43.570;1.448;2023-03-05T15:19:47;16.10;;;11.63;;